Time;durP1;ratioP1;P1;durP2;ratioP2;P2;SDS_P1;SDS_P2;PMS_P1;PMS_P2;Temp;Humidity;BMP_temperature;BMP_pressure;BME280_temperature;BME280_humidity;BME280_pressure;Samples;Min_cycle;Max_cycle;Signal;HPM_P1;HPM_P2
2021/05/22 00:00:14;;;;;;;4.00;1.40;;;;;;;;;;5061734;28;20269;-58
2021/05/22 00:02:44;;;;;;;2.67;1.30;;;;;;;;;;5063837;28;20224;-58
2021/05/22 00:05:10;;;;;;;6.20;1.77;;;;;;;;;;5060719;28;20668;-59
2021/05/22 00:07:37;;;;;;;5.13;1.80;;;;;;;;;;5059544;28;20272;-58
2021/05/22 00:10:10;;;;;;;6.93;1.53;;;;;;;;;;5059888;28;20344;-59
2021/05/22 00:12:40;;;;;;;5.23;2.43;;;;;;;;;;5067705;28;20213;-58
2021/05/22 00:15:07;;;;;;;8.27;1.63;;;;;;;;;;5061693;28;20193;-59
2021/05/22 00:17:37;;;;;;;2.87;1.07;;;;;;;;;;5061110;28;20673;-58
2021/05/22 00:20:04;;;;;;;5.20;1.60;;;;;;;;;;5063613;28;20196;-59
2021/05/22 00:22:30;;;;;;;3.90;1.70;;;;;;;;;;5059538;28;20213;-58
2021/05/22 00:24:57;;;;;;;4.70;1.40;;;;;;;;;;5060439;28;20184;-58
2021/05/22 00:27:25;;;;;;;4.87;1.63;;;;;;;;;;5056533;28;20416;-58
2021/05/22 00:29:55;;;;;;;6.13;1.60;;;;;;;;;;5059289;28;20690;-59
2021/05/22 00:32:23;;;;;;;0.40;0.40;;;;;;;;;;5041944;28;20209;-58
2021/05/22 00:34:48;;;;;;;3.97;0.80;;;;;;;;;;5062964;28;20260;-58
2021/05/22 00:37:15;;;;;;;1.13;0.77;;;;;;;;;;5062380;28;20652;-58
2021/05/22 00:39:41;;;;;;;3.77;1.03;;;;;;;;;;5067032;28;20200;-58
2021/05/22 00:42:09;;;;;;;1.80;0.83;;;;;;;;;;5065940;28;20358;-59
2021/05/22 00:44:34;;;;;;;1.37;1.00;;;;;;;;;;5065485;28;20255;-58
2021/05/22 00:47:04;;;;;;;3.13;1.00;;;;;;;;;;5048101;28;20189;-57
2021/05/22 00:49:31;;;;;;;1.57;0.67;;;;;;;;;;5067734;28;20904;-58
2021/05/22 00:52:01;;;;;;;5.20;1.10;;;;;;;;;;5062326;28;20201;-58
2021/05/22 00:54:26;;;;;;;1.30;0.67;;;;;;;;;;5066032;28;20663;-58
2021/05/22 00:56:54;;;;;;;1.93;0.80;;;;;;;;;;5063182;28;20206;-58
2021/05/22 00:59:19;;;;;;;1.67;0.80;;;;;;;;;;5050519;28;20189;-58
2021/05/22 01:01:45;;;;;;;3.00;1.10;;;;;;;;;;5054525;28;20210;-57
2021/05/22 01:04:20;;;;;;;6.53;1.57;;;;;;;;;;5063859;28;20189;-57
2021/05/22 01:06:50;;;;;;;4.90;1.77;;;;;;;;;;5049230;28;20211;-57
2021/05/22 01:09:19;;;;;;;2.20;1.67;;;;;;;;;;5066999;28;20243;-58
2021/05/22 01:11:49;;;;;;;1.80;1.03;;;;;;;;;;5063473;28;20362;-57
2021/05/22 01:14:18;;;;;;;2.80;1.60;;;;;;;;;;5060241;28;20193;-57
2021/05/22 01:16:53;;;;;;;3.17;1.57;;;;;;;;;;5058658;28;20220;-58
2021/05/22 01:19:40;;;;;;;2.60;1.57;;;;;;;;;;5067940;28;20712;-59
2021/05/22 01:22:10;;;;;;;2.50;1.23;;;;;;;;;;5066726;28;20244;-58
2021/05/22 01:24:49;;;;;;;4.37;1.60;;;;;;;;;;5058973;28;20246;-58
2021/05/22 01:27:18;;;;;;;4.87;1.80;;;;;;;;;;5045634;28;20200;-58
2021/05/22 01:29:46;;;;;;;3.83;1.63;;;;;;;;;;5066681;28;20733;-58
2021/05/22 01:32:12;;;;;;;4.03;1.40;;;;;;;;;;5066511;28;20243;-57
2021/05/22 01:34:39;;;;;;;3.60;1.17;;;;;;;;;;5058535;28;20197;-57
2021/05/22 01:37:07;;;;;;;2.57;1.30;;;;;;;;;;5060196;28;20238;-58
2021/05/22 01:39:34;;;;;;;5.67;1.80;;;;;;;;;;5061465;28;20220;-58
2021/05/22 01:42:02;;;;;;;3.47;1.53;;;;;;;;;;5054337;28;20239;-57
2021/05/22 01:44:32;;;;;;;4.80;1.30;;;;;;;;;;5059207;28;20194;-58
2021/05/22 01:46:59;;;;;;;3.07;1.20;;;;;;;;;;5064011;28;20181;-57
2021/05/22 01:49:27;;;;;;;2.47;0.87;;;;;;;;;;5053036;28;20180;-58
2021/05/22 01:51:54;;;;;;;0.63;0.57;;;;;;;;;;5062657;28;20644;-57
2021/05/22 01:54:25;;;;;;;0.77;0.60;;;;;;;;;;5063389;28;20657;-57
2021/05/22 01:56:51;;;;;;;0.73;0.67;;;;;;;;;;5054346;28;20200;-57
2021/05/22 01:59:19;;;;;;;3.50;0.87;;;;;;;;;;5061075;28;20589;-59
2021/05/22 02:01:55;;;;;;;2.87;0.80;;;;;;;;;;5061616;28;20213;-58
2021/05/22 02:04:25;;;;;;;2.83;0.90;;;;;;;;;;5061975;28;20330;-57
2021/05/22 02:06:51;;;;;;;3.50;0.77;;;;;;;;;;5060931;28;20193;-57
2021/05/22 02:09:19;;;;;;;1.27;0.70;;;;;;;;;;5063769;28;20195;-56
2021/05/22 02:11:48;;;;;;;0.50;0.50;;;;;;;;;;5065001;28;20337;-58
2021/05/22 02:14:22;;;;;;;1.63;0.70;;;;;;;;;;5065609;28;20222;-56
2021/05/22 02:16:52;;;;;;;0.70;0.40;;;;;;;;;;5060634;28;20199;-56
2021/05/22 02:19:20;;;;;;;0.37;0.30;;;;;;;;;;5065034;28;20193;-56
2021/05/22 02:21:46;;;;;;;2.30;0.60;;;;;;;;;;5063199;28;20304;-57
2021/05/22 02:24:16;;;;;;;1.50;0.70;;;;;;;;;;5063626;28;20185;-57
2021/05/22 02:26:42;;;;;;;2.20;0.70;;;;;;;;;;5061643;28;20185;-56
2021/05/22 02:29:15;;;;;;;0.63;0.47;;;;;;;;;;5068479;28;20201;-58
2021/05/22 02:31:43;;;;;;;1.73;0.63;;;;;;;;;;5050876;28;20677;-56
2021/05/22 02:34:12;;;;;;;0.37;0.37;;;;;;;;;;5066106;28;20189;-56
2021/05/22 02:36:40;;;;;;;0.30;0.30;;;;;;;;;;5061230;28;20672;-57
2021/05/22 02:39:07;;;;;;;2.40;1.00;;;;;;;;;;5057701;28;20280;-56
2021/05/22 02:41:42;;;;;;;0.73;0.37;;;;;;;;;;5067324;28;20196;-57
2021/05/22 02:44:11;;;;;;;0.50;0.50;;;;;;;;;;5067218;28;20522;-57
2021/05/22 02:46:40;;;;;;;1.10;0.60;;;;;;;;;;5061735;28;20184;-57
2021/05/22 02:49:07;;;;;;;1.10;0.67;;;;;;;;;;5069251;28;20193;-56
2021/05/22 02:51:33;;;;;;;1.07;0.73;;;;;;;;;;5069118;28;20210;-58
2021/05/22 02:54:03;;;;;;;0.80;0.80;;;;;;;;;;5069973;28;20199;-56
2021/05/22 02:56:31;;;;;;;2.80;0.60;;;;;;;;;;5064953;28;20192;-58
2021/05/22 02:58:57;;;;;;;1.80;1.00;;;;;;;;;;5061886;28;20277;-58
2021/05/22 03:01:25;;;;;;;0.40;0.40;;;;;;;;;;5067082;28;20276;-57
2021/05/22 03:03:53;;;;;;;4.80;0.60;;;;;;;;;;5064981;28;20611;-58
2021/05/22 03:06:21;;;;;;;0.70;0.63;;;;;;;;;;5066312;28;20196;-57
2021/05/22 03:08:50;;;;;;;1.50;0.60;;;;;;;;;;5066344;28;20200;-55
2021/05/22 03:11:17;;;;;;;7.70;0.97;;;;;;;;;;5065791;28;20224;-57
2021/05/22 03:13:44;;;;;;;2.30;0.97;;;;;;;;;;5066540;28;20224;-58
2021/05/22 03:16:09;;;;;;;1.80;0.80;;;;;;;;;;5057689;28;20304;-57
2021/05/22 03:18:39;;;;;;;1.00;0.60;;;;;;;;;;5065338;28;20197;-56
2021/05/22 03:21:05;;;;;;;1.03;0.83;;;;;;;;;;5064347;28;20251;-56
2021/05/22 03:23:33;;;;;;;0.60;0.50;;;;;;;;;;5066510;28;20212;-59
2021/05/22 03:25:58;;;;;;;1.33;0.90;;;;;;;;;;5062979;28;20185;-58
2021/05/22 03:28:23;;;;;;;0.80;0.40;;;;;;;;;;5066680;28;20189;-58
2021/05/22 03:30:51;;;;;;;0.93;0.57;;;;;;;;;;5066559;28;20644;-56
2021/05/22 03:33:21;;;;;;;0.40;0.30;;;;;;;;;;5056921;28;20225;-57
2021/05/22 03:35:49;;;;;;;0.23;0.23;;;;;;;;;;5046453;28;20230;-57
2021/05/22 03:38:14;;;;;;;0.67;0.67;;;;;;;;;;5065187;28;20283;-57
2021/05/22 03:40:42;;;;;;;0.43;0.43;;;;;;;;;;5053533;28;20193;-58
2021/05/22 03:43:11;;;;;;;4.43;0.80;;;;;;;;;;5059487;28;20217;-58
2021/05/22 03:45:39;;;;;;;0.50;0.50;;;;;;;;;;5063067;28;20332;-57
2021/05/22 03:48:09;;;;;;;1.20;0.63;;;;;;;;;;5060614;28;20580;-56
2021/05/22 03:50:36;;;;;;;1.53;0.67;;;;;;;;;;5066879;28;20197;-57
2021/05/22 03:53:04;;;;;;;2.37;0.90;;;;;;;;;;5065950;28;20209;-56
2021/05/22 03:55:29;;;;;;;1.33;0.80;;;;;;;;;;5063810;28;20247;-57
2021/05/22 03:57:55;;;;;;;1.17;0.83;;;;;;;;;;5059616;28;20194;-57
2021/05/22 04:00:20;;;;;;;1.43;1.00;;;;;;;;;;5066151;28;20189;-57
2021/05/22 04:02:46;;;;;;;3.23;0.57;;;;;;;;;;5066420;28;20208;-57
2021/05/22 04:05:13;;;;;;;3.57;0.80;;;;;;;;;;5067059;28;20246;-57
2021/05/22 04:07:39;;;;;;;1.13;0.60;;;;;;;;;;5066302;28;20256;-56
2021/05/22 04:10:05;;;;;;;2.20;0.50;;;;;;;;;;5067621;28;20304;-57
2021/05/22 05:57:12;;;;;;;7.23;1.20;;;;;;;;;;5061452;28;20276;-58
2021/05/22 05:59:37;;;;;;;4.40;1.40;;;;;;;;;;5033270;28;20217;-75
2021/05/22 06:04:51;;;;;;;5.97;1.20;;;;;;;;;;5863290;22;20242;-73
2021/05/22 06:07:16;;;;;;;4.70;1.33;;;;;;;;;;4996719;28;20748;-75
2021/05/22 06:09:46;;;;;;;1.57;0.80;;;;;;;;;;5023455;28;20234;-75
2021/05/22 06:12:14;;;;;;;2.30;1.07;;;;;;;;;;5007467;28;20742;-76
2021/05/22 06:14:42;;;;;;;4.77;1.10;;;;;;;;;;5024452;28;20194;-75
2021/05/22 06:17:09;;;;;;;3.60;1.00;;;;;;;;;;5005303;28;20199;-76
2021/05/22 06:19:37;;;;;;;3.00;1.27;;;;;;;;;;4984504;28;20241;-74
2021/05/22 06:22:07;;;;;;;2.87;1.00;;;;;;;;;;5009711;28;20241;-77
2021/05/22 06:24:34;;;;;;;4.53;1.20;;;;;;;;;;4990087;28;20199;-76
2021/05/22 06:26:59;;;;;;;2.47;0.80;;;;;;;;;;5010289;28;20269;-77
2021/05/22 06:29:27;;;;;;;1.77;0.87;;;;;;;;;;5012940;28;20278;-75
2021/05/22 06:31:52;;;;;;;4.93;1.00;;;;;;;;;;5007477;28;20732;-74
2021/05/22 06:34:18;;;;;;;3.40;1.47;;;;;;;;;;5011841;28;20218;-76
2021/05/22 06:36:46;;;;;;;5.23;1.10;;;;;;;;;;5007569;28;20207;-74
2021/05/22 06:39:15;;;;;;;4.57;1.40;;;;;;;;;;5007664;28;20187;-74
2021/05/22 06:41:42;;;;;;;6.90;1.40;;;;;;;;;;5009940;28;20705;-76
2021/05/22 06:44:18;;;;;;;3.00;0.90;;;;;;;;;;5012428;28;20247;-74
2021/05/22 06:46:47;;;;;;;3.17;1.03;;;;;;;;;;5022004;28;20243;-76
2021/05/22 06:49:14;;;;;;;2.57;1.00;;;;;;;;;;5012431;28;20228;-74
2021/05/22 06:51:47;;;;;;;4.83;1.00;;;;;;;;;;5028312;28;20223;-76
2021/05/22 06:54:12;;;;;;;1.60;0.83;;;;;;;;;;5015729;28;20307;-73
2021/05/22 06:56:40;;;;;;;4.90;1.30;;;;;;;;;;5012939;28;20708;-76
2021/05/22 06:59:05;;;;;;;2.93;1.10;;;;;;;;;;4990969;28;20196;-75
2021/05/22 07:01:33;;;;;;;3.13;1.20;;;;;;;;;;5006827;28;20194;-75
2021/05/22 07:03:58;;;;;;;4.07;1.30;;;;;;;;;;4988662;28;20237;-75
2021/05/22 07:06:26;;;;;;;2.27;1.00;;;;;;;;;;4989096;28;20234;-75
2021/05/22 07:08:56;;;;;;;5.90;1.10;;;;;;;;;;5011023;28;20183;-76
2021/05/22 07:11:23;;;;;;;4.33;0.83;;;;;;;;;;5008821;28;20623;-76
2021/05/22 07:13:50;;;;;;;2.43;1.10;;;;;;;;;;5007888;28;20823;-75
2021/05/22 07:16:18;;;;;;;2.40;1.20;;;;;;;;;;5005236;28;20207;-76
2021/05/22 07:18:46;;;;;;;1.40;0.70;;;;;;;;;;5006696;28;20629;-75
2021/05/22 07:21:16;;;;;;;5.20;1.23;;;;;;;;;;5008934;28;20195;-76
2021/05/22 07:23:45;;;;;;;4.90;1.07;;;;;;;;;;5009730;28;20694;-74
2021/05/22 07:26:15;;;;;;;3.90;1.30;;;;;;;;;;5007122;28;20262;-74
2021/05/22 07:28:43;;;;;;;3.63;1.30;;;;;;;;;;5009188;28;20650;-76
2021/05/22 07:31:08;;;;;;;2.97;1.27;;;;;;;;;;5008916;28;20204;-76
2021/05/22 07:33:41;;;;;;;2.67;1.00;;;;;;;;;;5005998;28;20198;-75
2021/05/22 07:36:11;;;;;;;2.40;0.90;;;;;;;;;;5006975;28;20226;-76
2021/05/22 07:38:39;;;;;;;5.03;0.90;;;;;;;;;;5008695;28;20730;-75
2021/05/22 07:41:07;;;;;;;4.23;1.00;;;;;;;;;;5007682;28;20633;-76
2021/05/22 07:43:32;;;;;;;4.90;1.10;;;;;;;;;;5009381;28;20271;-73
2021/05/22 07:46:00;;;;;;;3.00;0.90;;;;;;;;;;4999671;28;20294;-75
2021/05/22 07:48:30;;;;;;;1.90;1.00;;;;;;;;;;5006061;28;20195;-75
2021/05/22 07:50:57;;;;;;;5.57;1.00;;;;;;;;;;5009801;28;20584;-76
2021/05/22 07:53:25;;;;;;;2.20;1.10;;;;;;;;;;5007138;28;20195;-77
2021/05/22 07:55:55;;;;;;;2.53;1.15;;;;;;;;;;5009172;28;20291;-75
2021/05/22 07:58:23;;;;;;;3.28;1.30;;;;;;;;;;5007645;28;20194;-76
2021/05/22 08:00:50;;;;;;;4.30;1.17;;;;;;;;;;5007566;28;20179;-74
2021/05/22 08:03:18;;;;;;;4.95;1.50;;;;;;;;;;5009349;28;20214;-74
2021/05/22 08:05:45;;;;;;;3.33;1.15;;;;;;;;;;5005715;28;20213;-76
2021/05/22 08:08:13;;;;;;;1.80;1.00;;;;;;;;;;4989331;28;20642;-76
2021/05/22 08:10:39;;;;;;;2.53;0.90;;;;;;;;;;5008329;28;20805;-76
2021/05/22 08:13:05;;;;;;;2.70;0.93;;;;;;;;;;5006968;28;20195;-76
2021/05/22 08:15:31;;;;;;;3.30;0.90;;;;;;;;;;5007853;28;20682;-75
2021/05/22 08:18:00;;;;;;;3.07;1.10;;;;;;;;;;5008677;28;20188;-76
2021/05/22 08:20:29;;;;;;;4.27;0.80;;;;;;;;;;5006432;28;20271;-75
2021/05/22 08:22:54;;;;;;;3.60;0.90;;;;;;;;;;5008743;28;20274;-75
2021/05/22 08:25:19;;;;;;;2.87;1.03;;;;;;;;;;4990539;28;20214;-76
2021/05/22 08:27:49;;;;;;;4.97;1.33;;;;;;;;;;5003778;28;20191;-75
2021/05/22 08:30:20;;;;;;;2.00;1.20;;;;;;;;;;5009087;28;20668;-74
2021/05/22 08:32:48;;;;;;;3.97;1.17;;;;;;;;;;5000937;28;20187;-75
2021/05/22 08:35:18;;;;;;;2.27;0.83;;;;;;;;;;5006461;28;20289;-75
2021/05/22 08:37:48;;;;;;;3.63;1.23;;;;;;;;;;5008277;28;20184;-74
2021/05/22 08:40:18;;;;;;;2.97;0.90;;;;;;;;;;5005332;28;20206;-75
2021/05/22 08:42:46;;;;;;;1.47;0.73;;;;;;;;;;5007763;28;20671;-75
2021/05/22 08:45:17;;;;;;;2.17;0.80;;;;;;;;;;4999048;28;20207;-75
2021/05/22 08:47:43;;;;;;;3.80;1.10;;;;;;;;;;5003800;28;20225;-75
2021/05/22 08:50:13;;;;;;;5.07;1.17;;;;;;;;;;5008652;28;20686;-75
2021/05/22 08:52:41;;;;;;;3.20;0.87;;;;;;;;;;5007230;28;20238;-76
2021/05/22 08:55:10;;;;;;;3.20;0.83;;;;;;;;;;5004319;28;20717;-76
2021/05/22 08:57:40;;;;;;;2.33;0.90;;;;;;;;;;5005004;28;20194;-75
2021/05/22 09:00:14;;;;;;;2.92;1.08;;;;;;;;;;5008064;28;20198;-75
2021/05/22 09:02:41;;;;;;;4.10;0.93;;;;;;;;;;5006580;28;20243;-76
2021/05/22 09:05:31;;;;;;;3.40;1.13;;;;;;;;;;5007675;28;20231;-75
2021/05/22 09:08:06;;;;;;;1.17;0.70;;;;;;;;;;5006404;28;20234;-75
2021/05/22 09:10:41;;;;;;;3.33;1.10;;;;;;;;;;5004552;28;20206;-76
2021/05/22 09:13:10;;;;;;;1.80;0.80;;;;;;;;;;5008307;28;20309;-74
2021/05/22 09:15:43;;;;;;;3.13;1.30;;;;;;;;;;5001497;28;20222;-74
2021/05/22 09:18:12;;;;;;;3.63;0.80;;;;;;;;;;5006674;28;20284;-75
2021/05/22 09:20:50;;;;;;;2.03;1.00;;;;;;;;;;4990487;28;20175;-75
2021/05/22 09:23:17;;;;;;;2.10;0.87;;;;;;;;;;5007358;28;20566;-75
2021/05/22 09:25:55;;;;;;;1.73;0.83;;;;;;;;;;5005795;28;20202;-76
2021/05/22 09:28:26;;;;;;;4.10;1.00;;;;;;;;;;5007938;28;20206;-74
2021/05/22 09:30:54;;;;;;;2.60;0.90;;;;;;;;;;4989028;28;20633;-75
2021/05/22 09:33:23;;;;;;;2.70;0.80;;;;;;;;;;5005182;28;20195;-76
2021/05/22 09:35:54;;;;;;;2.83;1.40;;;;;;;;;;5005293;28;20207;-75
2021/05/22 09:38:36;;;;;;;2.40;0.93;;;;;;;;;;5008267;28;20671;-75
2021/05/22 09:41:21;;;;;;;2.90;1.13;;;;;;;;;;5009583;28;20194;-76
2021/05/22 09:44:13;;;;;;;3.37;1.07;;;;;;;;;;5007741;28;20191;-75
2021/05/22 09:46:44;;;;;;;2.17;0.93;;;;;;;;;;5010474;28;20207;-75
2021/05/22 09:49:18;;;;;;;2.87;0.80;;;;;;;;;;5008957;28;20214;-75
2021/05/22 09:52:04;;;;;;;2.73;0.90;;;;;;;;;;5012725;28;20210;-76
2021/05/22 09:54:51;;;;;;;11.00;1.63;;;;;;;;;;5008751;28;20198;-76
2021/05/22 09:57:21;;;;;;;2.70;0.90;;;;;;;;;;5006194;28;20184;-76
2021/05/22 10:00:10;;;;;;;3.17;1.00;;;;;;;;;;5009881;28;20189;-74
2021/05/22 10:02:45;;;;;;;3.07;0.83;;;;;;;;;;5009892;28;20199;-75
2021/05/22 10:05:33;;;;;;;2.60;0.80;;;;;;;;;;5008218;28;20206;-74
2021/05/22 10:08:02;;;;;;;1.93;0.90;;;;;;;;;;5006375;28;20213;-76
2021/05/22 10:10:41;;;;;;;1.40;0.70;;;;;;;;;;4995170;28;20230;-76
2021/05/22 10:13:08;;;;;;;2.10;0.83;;;;;;;;;;4992133;28;20167;-76
2021/05/22 10:15:33;;;;;;;2.53;0.70;;;;;;;;;;5008590;28;20207;-76
2021/05/22 10:17:59;;;;;;;2.03;0.80;;;;;;;;;;5011369;28;20251;-75
2021/05/22 10:20:26;;;;;;;2.10;0.90;;;;;;;;;;5008488;28;20198;-75
2021/05/22 10:22:52;;;;;;;0.57;0.57;;;;;;;;;;5011089;28;20697;-75
2021/05/22 10:25:18;;;;;;;3.53;1.13;;;;;;;;;;5010505;28;20199;-74
2021/05/22 10:27:51;;;;;;;0.97;0.63;;;;;;;;;;5005631;28;20694;-76
2021/05/22 10:30:19;;;;;;;4.60;1.00;;;;;;;;;;5009969;28;20218;-75
2021/05/22 10:32:47;;;;;;;1.63;0.80;;;;;;;;;;5009669;28;20199;-75
2021/05/22 10:35:16;;;;;;;1.70;0.70;;;;;;;;;;5008094;28;20574;-75
2021/05/22 10:37:48;;;;;;;2.60;0.97;;;;;;;;;;5009552;28;20197;-76
2021/05/22 10:40:19;;;;;;;7.37;1.17;;;;;;;;;;5008055;28;20183;-75
2021/05/22 10:42:55;;;;;;;4.07;0.87;;;;;;;;;;5002555;28;20191;-76
2021/05/22 10:45:29;;;;;;;4.53;0.70;;;;;;;;;;5010454;28;20206;-74
2021/05/22 10:48:03;;;;;;;3.03;0.63;;;;;;;;;;5004660;28;20195;-74
2021/05/22 10:50:40;;;;;;;2.43;0.70;;;;;;;;;;5009717;28;20219;-76
2021/05/22 10:53:24;;;;;;;1.13;0.60;;;;;;;;;;5010890;28;20187;-75
2021/05/22 10:56:14;;;;;;;2.23;0.80;;;;;;;;;;5007270;28;20218;-75
2021/05/22 10:58:59;;;;;;;2.00;0.80;;;;;;;;;;5005658;28;20192;-75
2021/05/22 11:01:24;;;;;;;3.03;0.70;;;;;;;;;;5010255;28;20547;-75
2021/05/22 11:04:07;;;;;;;1.57;0.80;;;;;;;;;;5010423;28;20183;-76
2021/05/22 11:06:51;;;;;;;3.47;1.13;;;;;;;;;;5005710;28;20207;-74
2021/05/22 11:09:30;;;;;;;0.80;0.63;;;;;;;;;;5008910;28;20596;-74
2021/05/22 11:12:01;;;;;;;2.30;0.80;;;;;;;;;;5011139;28;20205;-76
2021/05/22 11:14:35;;;;;;;2.50;0.80;;;;;;;;;;4990915;28;20202;-75
2021/05/22 11:17:26;;;;;;;3.07;0.80;;;;;;;;;;5010247;28;20904;-75
2021/05/22 11:20:01;;;;;;;3.50;0.50;;;;;;;;;;5003337;28;20609;-75
2021/05/22 11:22:31;;;;;;;1.70;0.60;;;;;;;;;;5006746;28;20191;-76
2021/05/22 11:25:00;;;;;;;2.20;0.80;;;;;;;;;;5009610;28;20211;-75
2021/05/22 11:27:56;;;;;;;2.37;0.80;;;;;;;;;;5008735;28;20183;-76
2021/05/22 11:30:33;;;;;;;2.57;0.73;;;;;;;;;;5007595;28;20269;-75
2021/05/22 11:33:09;;;;;;;3.40;0.70;;;;;;;;;;5009654;28;20242;-74
2021/05/22 11:35:39;;;;;;;1.70;1.00;;;;;;;;;;5008383;28;20274;-75
2021/05/22 11:38:13;;;;;;;3.07;0.70;;;;;;;;;;5005289;28;20192;-75
2021/05/22 11:40:39;;;;;;;2.00;0.37;;;;;;;;;;4991124;28;20669;-75
2021/05/22 11:43:18;;;;;;;0.47;0.43;;;;;;;;;;4992477;28;20191;-75
2021/05/22 11:45:53;;;;;;;1.67;0.90;;;;;;;;;;5005011;28;20220;-76
2021/05/22 11:48:42;;;;;;;2.30;0.60;;;;;;;;;;5008179;28;20191;-76
2021/05/22 11:51:11;;;;;;;1.50;0.90;;;;;;;;;;5009508;28;20203;-75
2021/05/22 11:53:41;;;;;;;3.30;0.80;;;;;;;;;;5007155;28;20191;-75
2021/05/22 11:56:16;;;;;;;2.10;0.83;;;;;;;;;;4998467;28;20203;-75
2021/05/22 11:58:47;;;;;;;2.07;0.80;;;;;;;;;;5008591;28;20182;-75
2021/05/22 12:01:43;;;;;;;1.67;0.70;;;;;;;;;;5006042;28;20873;-73
2021/05/22 12:04:15;;;;;;;1.47;0.70;;;;;;;;;;5009516;28;20183;-75
2021/05/22 12:06:47;;;;;;;4.00;0.80;;;;;;;;;;5007977;28;20317;-75
2021/05/22 12:09:20;;;;;;;4.13;0.70;;;;;;;;;;5005724;28;20845;-74
2021/05/22 12:12:04;;;;;;;4.03;0.87;;;;;;;;;;5007897;28;20207;-75
2021/05/22 12:14:47;;;;;;;0.77;0.50;;;;;;;;;;5009435;28;20175;-76
2021/05/22 12:17:15;;;;;;;1.33;0.60;;;;;;;;;;5003709;28;20217;-75
2021/05/22 12:19:45;;;;;;;0.90;0.60;;;;;;;;;;5008904;28;20317;-74
2021/05/22 12:22:12;;;;;;;1.80;0.67;;;;;;;;;;5029475;23;20241;-58
2021/05/22 12:24:39;;;;;;;1.30;0.60;;;;;;;;;;5006362;28;20665;-58
2021/05/22 12:27:13;;;;;;;2.77;0.60;;;;;;;;;;5008810;28;20199;-60
2021/05/22 12:29:41;;;;;;;4.90;0.80;;;;;;;;;;5004738;28;20673;-59
2021/05/22 12:32:14;;;;;;;1.07;0.50;;;;;;;;;;5009362;28;20276;-58
2021/05/22 12:34:42;;;;;;;1.27;0.50;;;;;;;;;;5020184;23;20496;-58
2021/05/22 12:37:18;;;;;;;0.93;0.53;;;;;;;;;;4984279;28;20245;-58
2021/05/22 12:39:49;;;;;;;0.80;0.60;;;;;;;;;;4984668;28;20234;-59
2021/05/22 12:42:34;;;;;;;1.47;0.80;;;;;;;;;;4984511;28;20184;-57
2021/05/22 12:45:16;;;;;;;0.53;0.50;;;;;;;;;;4984170;28;20271;-57
2021/05/22 12:47:50;;;;;;;0.50;0.50;;;;;;;;;;4983841;28;20210;-58
2021/05/22 12:50:26;;;;;;;1.80;0.70;;;;;;;;;;4981460;28;20282;-57
2021/05/22 12:52:58;;;;;;;2.03;0.93;;;;;;;;;;4982155;28;20192;-57
2021/05/22 12:55:28;;;;;;;1.63;0.60;;;;;;;;;;4985681;28;20669;-58
2021/05/22 12:57:55;;;;;;;0.60;0.50;;;;;;;;;;4980133;28;20276;-58
2021/05/22 13:00:24;;;;;;;1.47;0.80;;;;;;;;;;4981435;28;20207;-59
2021/05/22 13:02:55;;;;;;;1.57;0.83;;;;;;;;;;4986804;28;20251;-61
2021/05/22 13:05:32;;;;;;;2.63;0.53;;;;;;;;;;4978409;28;20767;-60
2021/05/22 13:08:09;;;;;;;0.70;0.60;;;;;;;;;;4983453;28;20199;-61
2021/05/22 13:10:40;;;;;;;1.83;0.63;;;;;;;;;;4986453;28;20203;-58
2021/05/22 13:13:09;;;;;;;2.30;0.80;;;;;;;;;;4983254;28;20230;-58
2021/05/22 13:15:55;;;;;;;0.50;0.50;;;;;;;;;;4981563;28;20226;-58
2021/05/22 13:18:23;;;;;;;1.10;0.70;;;;;;;;;;4986190;28;20216;-59
2021/05/22 13:21:01;;;;;;;1.03;0.60;;;;;;;;;;4978940;28;20181;-59
2021/05/22 13:23:45;;;;;;;1.33;0.60;;;;;;;;;;4979291;28;20259;-58
2021/05/22 13:26:27;;;;;;;3.00;0.87;;;;;;;;;;4983829;28;20234;-57
2021/05/22 13:28:55;;;;;;;0.57;0.50;;;;;;;;;;4981484;28;20194;-59
2021/05/22 13:31:28;;;;;;;1.13;0.50;;;;;;;;;;4982944;28;20294;-58
2021/05/22 13:34:01;;;;;;;1.33;0.60;;;;;;;;;;4985465;28;20218;-58
2021/05/22 13:36:30;;;;;;;1.77;0.60;;;;;;;;;;4986900;28;20746;-58
2021/05/22 13:38:58;;;;;;;1.00;0.50;;;;;;;;;;4981622;28;20550;-58
2021/05/22 13:41:42;;;;;;;1.83;0.57;;;;;;;;;;4984434;28;20200;-58
2021/05/22 13:44:12;;;;;;;0.87;0.40;;;;;;;;;;4987950;28;20179;-60
2021/05/22 13:46:40;;;;;;;1.67;0.70;;;;;;;;;;4978267;28;20199;-58
2021/05/22 13:49:08;;;;;;;2.40;0.70;;;;;;;;;;4980192;28;20267;-60
2021/05/22 13:51:40;;;;;;;0.90;0.60;;;;;;;;;;4982531;28;20204;-58
2021/05/22 13:54:06;;;;;;;3.30;0.87;;;;;;;;;;4983802;28;20738;-61
2021/05/22 13:56:32;;;;;;;3.20;0.57;;;;;;;;;;4978639;28;20223;-57
2021/05/22 13:58:57;;;;;;;3.50;0.90;;;;;;;;;;4969658;28;20199;-59
2021/05/22 14:01:23;;;;;;;1.57;0.60;;;;;;;;;;4981134;28;21318;-59
2021/05/22 14:03:50;;;;;;;2.07;0.67;;;;;;;;;;4985467;28;20188;-59
2021/05/22 14:06:20;;;;;;;1.27;0.60;;;;;;;;;;4981060;28;20225;-59
2021/05/22 14:08:46;;;;;;;0.77;0.50;;;;;;;;;;4985041;28;20199;-60
2021/05/22 14:11:13;;;;;;;1.33;0.60;;;;;;;;;;4982569;28;20224;-61
2021/05/22 14:13:38;;;;;;;1.20;0.57;;;;;;;;;;4982130;28;20196;-64
2021/05/22 14:16:05;;;;;;;1.13;0.60;;;;;;;;;;4986913;28;20223;-60
2021/05/22 14:18:31;;;;;;;1.17;0.60;;;;;;;;;;4987417;28;20195;-60
2021/05/22 14:21:01;;;;;;;0.57;0.50;;;;;;;;;;4982969;28;20196;-60
2021/05/22 14:23:28;;;;;;;2.83;0.80;;;;;;;;;;4998258;28;20192;-59
2021/05/22 14:25:59;;;;;;;1.07;0.50;;;;;;;;;;4988059;28;20633;-59
2021/05/22 14:28:26;;;;;;;3.83;0.80;;;;;;;;;;4984434;28;20210;-61
2021/05/22 14:30:52;;;;;;;1.23;0.70;;;;;;;;;;4990063;28;20220;-59
2021/05/22 14:33:20;;;;;;;0.73;0.50;;;;;;;;;;4986382;28;20250;-61
2021/05/22 14:35:50;;;;;;;0.70;0.60;;;;;;;;;;4982048;28;20224;-62
2021/05/22 14:38:15;;;;;;;0.43;0.43;;;;;;;;;;4989363;28;20299;-60
2021/05/22 14:40:40;;;;;;;0.93;0.70;;;;;;;;;;4983373;28;20828;-59
2021/05/22 14:43:13;;;;;;;2.20;1.03;;;;;;;;;;4987080;28;20671;-59
2021/05/22 14:45:39;;;;;;;3.60;2.10;;;;;;;;;;4985739;28;20749;-61
2021/05/22 14:48:09;;;;;;;1.20;0.70;;;;;;;;;;4980884;28;20196;-60
2021/05/22 14:50:34;;;;;;;0.93;0.60;;;;;;;;;;4982521;28;20216;-61
2021/05/22 14:53:07;;;;;;;0.40;0.40;;;;;;;;;;4985981;28;20271;-57
2021/05/22 14:55:37;;;;;;;1.17;0.50;;;;;;;;;;4984062;28;20223;-58
2021/05/22 14:58:03;;;;;;;2.10;0.60;;;;;;;;;;4987506;28;20204;-59
2021/05/22 15:00:31;;;;;;;0.90;0.50;;;;;;;;;;4985690;28;20196;-58
2021/05/22 15:03:01;;;;;;;0.80;0.60;;;;;;;;;;4985183;28;20219;-58
2021/05/22 15:05:32;;;;;;;1.13;0.60;;;;;;;;;;4994583;28;20215;-60
2021/05/22 15:08:03;;;;;;;1.73;0.53;;;;;;;;;;4989055;28;20393;-58
2021/05/22 15:10:33;;;;;;;2.27;0.70;;;;;;;;;;4987021;28;20230;-58
2021/05/22 15:13:00;;;;;;;2.13;0.67;;;;;;;;;;4986466;28;20691;-59
2021/05/22 15:15:27;;;;;;;0.70;0.63;;;;;;;;;;4980909;28;20231;-60
2021/05/22 15:17:55;;;;;;;0.50;0.50;;;;;;;;;;4987066;28;20667;-61
2021/05/22 15:20:23;;;;;;;2.27;0.60;;;;;;;;;;4999869;28;20188;-59
2021/05/22 15:22:51;;;;;;;2.43;0.50;;;;;;;;;;4980219;28;20203;-58
2021/05/22 15:25:17;;;;;;;1.57;0.60;;;;;;;;;;4994430;28;20635;-57
2021/05/22 15:27:45;;;;;;;0.90;0.77;;;;;;;;;;4983279;28;20372;-58
2021/05/22 15:30:16;;;;;;;0.77;0.70;;;;;;;;;;4979801;28;20899;-57
2021/05/22 15:32:45;;;;;;;0.67;0.60;;;;;;;;;;4987815;28;20199;-60
2021/05/22 15:35:13;;;;;;;1.80;0.70;;;;;;;;;;4980398;28;20216;-58
2021/05/22 15:37:41;;;;;;;1.10;0.60;;;;;;;;;;4986214;28;20560;-60
2021/05/22 15:40:07;;;;;;;1.53;0.57;;;;;;;;;;4989071;28;20687;-59
2021/05/22 15:42:37;;;;;;;1.37;0.80;;;;;;;;;;4986192;28;20664;-59
2021/05/22 15:45:08;;;;;;;0.97;0.60;;;;;;;;;;4990295;28;20222;-58
2021/05/22 16:00:37;;;;;;;1.27;0.70;;;;;;;;;;4984703;28;20733;-60
2021/05/22 16:03:22;;;;;;;1.27;0.70;;;;;;;;;;4980635;28;20196;-58
2021/05/22 16:08:05;;;;;;;0.70;0.70;;;;;;;;;;4979242;28;20183;-59
2021/05/22 16:10:32;;;;;;;0.50;0.50;;;;;;;;;;4981072;28;20216;-58
2021/05/22 16:13:02;;;;;;;0.97;0.53;;;;;;;;;;4981548;28;20192;-58
2021/05/22 16:15:34;;;;;;;2.53;0.67;;;;;;;;;;4984653;28;20585;-59
2021/05/22 16:18:00;;;;;;;2.83;0.80;;;;;;;;;;4981571;28;20287;-58
2021/05/22 16:20:26;;;;;;;1.73;0.70;;;;;;;;;;4974571;28;20275;-58
2021/05/22 16:22:51;;;;;;;1.13;0.60;;;;;;;;;;4987613;28;20538;-57
2021/05/22 16:25:19;;;;;;;1.57;0.80;;;;;;;;;;4982441;28;20235;-61
2021/05/22 16:27:47;;;;;;;1.77;0.80;;;;;;;;;;4985006;28;20691;-59
2021/05/22 16:30:15;;;;;;;1.60;0.80;;;;;;;;;;4981747;28;20281;-63
2021/05/22 16:32:41;;;;;;;1.37;0.83;;;;;;;;;;4986985;28;20254;-57
2021/05/22 16:35:13;;;;;;;2.83;0.80;;;;;;;;;;4978642;28;20319;-60
2021/05/22 16:37:42;;;;;;;0.70;0.50;;;;;;;;;;4984991;28;20184;-59
2021/05/22 16:40:13;;;;;;;1.60;0.70;;;;;;;;;;4980996;28;20191;-59
2021/05/22 16:42:43;;;;;;;3.23;0.80;;;;;;;;;;4981968;28;20554;-58
2021/05/22 16:45:10;;;;;;;1.80;0.87;;;;;;;;;;4979009;28;20219;-59
2021/05/22 16:47:35;;;;;;;1.07;0.70;;;;;;;;;;4981807;28;20188;-59
2021/05/22 16:50:00;;;;;;;0.97;0.70;;;;;;;;;;4988747;28;20223;-59
2021/05/22 16:52:28;;;;;;;1.27;0.77;;;;;;;;;;4981826;28;20184;-62
2021/05/22 16:54:58;;;;;;;2.00;0.87;;;;;;;;;;4976376;28;20226;-59
2021/05/22 16:57:25;;;;;;;2.50;0.80;;;;;;;;;;4978791;28;20196;-59
2021/05/22 16:59:50;;;;;;;1.23;0.60;;;;;;;;;;4993976;28;20261;-60
2021/05/22 17:02:23;;;;;;;1.07;0.70;;;;;;;;;;4981756;28;20876;-61